createdAt,value
2022-12-22T00:02:36.113Z,66.49
2022-12-22T00:05:31.103Z,66.40
2022-12-22T00:08:16.381Z,66.81
2022-12-22T00:11:02.257Z,67.00
2022-12-22T00:13:49.315Z,66.80
2022-12-22T00:16:35.001Z,66.86
2022-12-22T00:19:20.851Z,66.85
2022-12-22T00:22:06.212Z,67.04
2022-12-22T00:24:51.572Z,67.21
2022-12-22T00:27:45.951Z,66.75
2022-12-22T00:30:34.723Z,67.04
2022-12-22T00:33:23.096Z,67.01
2022-12-22T00:36:09.118Z,66.68
2022-12-22T00:38:54.586Z,67.29
2022-12-22T00:41:39.928Z,67.01
2022-12-22T00:44:25.295Z,67.78
2022-12-22T00:47:12.259Z,67.08
2022-12-22T00:50:03.279Z,67.43
2022-12-22T00:52:49.048Z,67.42
2022-12-22T00:55:37.814Z,67.21
2022-12-22T00:58:31.556Z,67.27
2022-12-22T01:01:16.886Z,67.68
2022-12-22T01:04:04.222Z,67.95
2022-12-22T01:06:50.915Z,67.24
2022-12-22T01:09:36.699Z,67.30
2022-12-22T01:12:22.935Z,67.59
2022-12-22T01:15:08.350Z,67.22
2022-12-22T01:17:54.098Z,67.73
2022-12-22T01:20:41.099Z,67.86
2022-12-22T01:23:29.552Z,67.51
2022-12-22T01:26:15.475Z,68.32
2022-12-22T01:29:00.869Z,68.05
2022-12-22T01:31:48.617Z,68.01
2022-12-22T01:34:34.429Z,68.20
2022-12-22T01:37:21.442Z,68.20
2022-12-22T01:40:06.824Z,68.27
2022-12-22T01:42:54.120Z,68.38
2022-12-22T01:45:42.311Z,67.99
2022-12-22T01:48:30.586Z,68.46
2022-12-22T01:51:19.121Z,68.17
2022-12-22T01:54:07.015Z,67.79
2022-12-22T01:56:52.654Z,67.43
2022-12-22T01:59:38.592Z,67.78
2022-12-22T02:02:24.927Z,67.67
2022-12-22T02:05:11.173Z,67.14
2022-12-22T02:08:12.594Z,66.69
2022-12-22T02:11:29.363Z,66.99
2022-12-22T02:14:30.546Z,67.47
2022-12-22T02:17:27.425Z,68.24
2022-12-22T02:20:44.268Z,66.92
2022-12-22T02:23:39.547Z,67.20
2022-12-22T02:26:42.208Z,66.24
2022-12-22T02:29:29.208Z,66.70
2022-12-22T02:32:15.287Z,67.21
2022-12-22T02:35:00.575Z,67.17
2022-12-22T02:37:54.015Z,66.43
2022-12-22T02:40:48.189Z,66.75
2022-12-22T02:43:48.285Z,66.70
2022-12-22T02:46:42.076Z,67.19
2022-12-22T02:49:34.916Z,67.22
2022-12-22T02:52:27.769Z,67.04
2022-12-22T02:55:13.471Z,67.39
2022-12-22T02:57:58.885Z,67.43
2022-12-22T03:00:46.029Z,67.40
2022-12-22T03:03:31.402Z,67.17
2022-12-22T03:06:16.817Z,66.75
2022-12-22T03:09:02.286Z,66.85
2022-12-22T03:11:47.527Z,67.08
2022-12-22T03:14:32.932Z,66.88
2022-12-22T03:17:19.678Z,66.62
2022-12-22T03:20:05.054Z,66.38
2022-12-22T03:22:50.278Z,66.85
2022-12-22T03:25:35.558Z,66.55
2022-12-22T03:28:04.315Z,66.49
2022-12-22T03:30:32.695Z,66.37
2022-12-22T03:33:02.280Z,66.54
2022-12-22T03:35:30.297Z,66.36
2022-12-22T03:38:03.378Z,66.01
2022-12-22T03:40:32.067Z,66.26
2022-12-22T03:43:17.396Z,66.47
2022-12-22T03:46:03.224Z,66.93
2022-12-22T03:48:32.716Z,66.53
2022-12-22T03:51:00.729Z,66.77
2022-12-22T03:53:28.758Z,66.57
2022-12-22T03:55:56.745Z,66.53
2022-12-22T03:58:24.790Z,67.20
2022-12-22T04:00:52.991Z,66.85
2022-12-22T04:03:21.082Z,66.45
2022-12-22T04:05:50.502Z,66.53
2022-12-22T04:08:18.539Z,66.63
2022-12-22T04:11:04.338Z,66.31
2022-12-22T04:13:32.379Z,66.47
2022-12-22T04:16:00.454Z,66.37
2022-12-22T04:18:28.551Z,66.23
2022-12-22T04:20:57.968Z,66.43
2022-12-22T04:23:26.033Z,66.68
2022-12-22T04:25:54.035Z,66.37
2022-12-22T04:28:22.119Z,66.65
2022-12-22T04:30:51.143Z,66.99
2022-12-22T04:33:19.292Z,66.83
2022-12-22T04:35:47.334Z,66.33
2022-12-22T04:38:16.754Z,66.14
2022-12-22T04:40:44.794Z,66.24
2022-12-22T04:43:12.840Z,66.45
2022-12-22T04:45:40.888Z,66.51
2022-12-22T04:48:08.962Z,66.53
2022-12-22T04:50:37.055Z,66.79
2022-12-22T04:53:05.103Z,66.50
2022-12-22T04:55:34.539Z,66.37
2022-12-22T04:58:02.633Z,66.40
2022-12-22T05:00:30.768Z,66.23
2022-12-22T05:02:58.936Z,66.06
2022-12-22T05:05:27.026Z,65.91
2022-12-22T05:07:55.075Z,65.94
2022-12-22T05:10:23.116Z,66.03
2022-12-22T05:12:55.519Z,65.84
2022-12-22T05:15:23.916Z,66.19
2022-12-22T05:17:52.095Z,66.24
2022-12-22T05:20:20.632Z,66.19
2022-12-22T05:22:48.943Z,66.11
2022-12-22T05:25:18.053Z,65.94
2022-12-22T05:27:46.440Z,65.91
2022-12-22T05:30:17.859Z,65.94
2022-12-22T05:32:46.223Z,65.93
2022-12-22T05:35:14.564Z,65.86
2022-12-22T05:37:42.934Z,65.78
2022-12-22T05:40:12.752Z,65.73
2022-12-22T05:42:40.869Z,65.73
2022-12-22T05:45:15.049Z,65.78
2022-12-22T05:47:45.550Z,65.23
2022-12-22T05:50:14.962Z,65.50
2022-12-22T05:52:44.867Z,65.53
2022-12-22T05:55:13.801Z,65.54
2022-12-22T05:57:42.445Z,65.75
2022-12-22T06:00:12.778Z,65.56
2022-12-22T06:02:40.931Z,65.43
2022-12-22T06:05:12.039Z,65.38
2022-12-22T06:07:40.724Z,65.41
2022-12-22T06:10:12.705Z,65.41
2022-12-22T06:12:41.633Z,65.37
2022-12-22T06:15:12.412Z,65.40
2022-12-22T06:17:44.792Z,65.54
2022-12-22T06:20:15.646Z,65.27
2022-12-22T06:22:43.740Z,65.33
2022-12-22T06:25:17.815Z,65.29
2022-12-22T06:27:47.185Z,65.40
2022-12-22T06:30:15.784Z,65.43
2022-12-22T06:32:43.986Z,65.40
2022-12-22T06:35:14.411Z,65.26
2022-12-22T06:37:42.493Z,65.41
2022-12-22T06:40:11.397Z,65.30
2022-12-22T06:43:00.782Z,65.47
2022-12-22T06:45:34.004Z,65.43
2022-12-22T06:48:02.157Z,65.75
2022-12-22T06:50:31.580Z,65.75
2022-12-22T06:52:59.664Z,65.76
2022-12-22T06:55:27.891Z,65.74
2022-12-22T06:57:55.993Z,65.79
2022-12-22T07:00:24.999Z,65.99
2022-12-22T07:02:53.312Z,65.82
2022-12-22T07:05:21.563Z,65.64
2022-12-22T07:07:51.143Z,65.65
2022-12-22T07:10:39.712Z,65.72
2022-12-22T07:13:19.469Z,65.48
2022-12-22T07:15:52.079Z,65.05
2022-12-22T07:18:26.136Z,64.79
2022-12-22T07:20:54.151Z,64.56
2022-12-22T07:23:23.606Z,64.34
2022-12-22T07:25:51.604Z,64.37
2022-12-22T07:28:21.318Z,64.36
2022-12-22T07:30:50.588Z,64.40
2022-12-22T07:33:18.932Z,64.30
2022-12-22T07:35:47.369Z,64.22
2022-12-22T07:38:15.461Z,64.40
2022-12-22T07:40:48.051Z,64.40
2022-12-22T07:43:18.858Z,64.87
2022-12-22T07:45:46.904Z,64.85
2022-12-22T07:48:28.828Z,64.72
2022-12-22T07:51:03.057Z,64.90
2022-12-22T07:53:31.075Z,65.14
2022-12-22T07:56:03.298Z,65.03
2022-12-22T07:58:31.489Z,65.23
2022-12-22T08:01:00.764Z,65.30
2022-12-22T08:03:29.257Z,65.66
2022-12-22T08:05:57.325Z,65.72
2022-12-22T08:08:25.382Z,65.75
2022-12-22T08:10:53.461Z,65.58
2022-12-22T08:13:22.941Z,65.28
2022-12-22T08:15:51.037Z,65.25
2022-12-22T08:18:19.143Z,65.24
2022-12-22T08:20:50.779Z,64.95
2022-12-22T08:23:18.994Z,65.14
2022-12-22T08:25:49.487Z,64.86
2022-12-22T08:28:18.391Z,64.91
2022-12-22T08:30:48.334Z,64.74
2022-12-22T08:33:16.643Z,64.54
2022-12-22T08:35:45.061Z,64.70
2022-12-22T08:38:14.756Z,64.66
2022-12-22T08:40:44.526Z,64.62
2022-12-22T08:43:13.312Z,64.63
2022-12-22T08:45:42.652Z,64.78
2022-12-22T08:48:12.160Z,64.88
2022-12-22T08:50:40.513Z,64.76
2022-12-22T08:53:23.703Z,64.69
2022-12-22T08:55:57.977Z,64.92
2022-12-22T08:58:26.037Z,64.97
2022-12-22T09:00:54.141Z,65.24
2022-12-22T09:03:23.639Z,65.18
2022-12-22T09:05:51.741Z,65.02
2022-12-22T09:08:19.782Z,65.14
2022-12-22T09:10:47.815Z,65.41
2022-12-22T09:13:15.891Z,65.46
2022-12-22T09:15:43.933Z,65.46
2022-12-22T09:18:12.023Z,65.45
2022-12-22T09:20:41.459Z,65.46
2022-12-22T09:23:09.474Z,65.47
2022-12-22T09:25:37.562Z,65.48
2022-12-22T09:28:08.471Z,65.19
2022-12-22T09:30:36.547Z,65.37
2022-12-22T09:33:04.589Z,65.06
2022-12-22T09:35:32.615Z,64.82
2022-12-22T09:38:02.021Z,65.03
2022-12-22T09:40:30.076Z,64.93
2022-12-22T09:42:59.410Z,65.05
2022-12-22T09:45:27.525Z,65.08
2022-12-22T09:47:56.685Z,65.03
2022-12-22T09:50:26.466Z,64.90
2022-12-22T09:52:58.647Z,64.69
2022-12-22T09:55:41.037Z,64.59
2022-12-22T09:58:24.013Z,64.43
2022-12-22T10:01:01.814Z,64.43
2022-12-22T10:03:35.879Z,64.56
2022-12-22T10:06:12.223Z,64.65
2022-12-22T10:08:41.862Z,64.94
2022-12-22T10:11:16.504Z,64.69
2022-12-22T10:13:46.155Z,65.19
2022-12-22T10:16:19.838Z,64.88
2022-12-22T10:18:58.452Z,65.52
2022-12-22T10:21:26.531Z,66.97
2022-12-22T10:23:55.238Z,67.15
2022-12-22T10:26:29.157Z,65.23
2022-12-22T10:29:02.363Z,62.97
2022-12-22T10:31:32.416Z,61.28
2022-12-22T10:34:12.717Z,58.95
2022-12-22T10:36:41.719Z,60.49
2022-12-22T10:39:11.960Z,60.67
2022-12-22T10:41:45.825Z,60.75
2022-12-22T10:44:21.232Z,60.82
2022-12-22T10:46:51.629Z,60.61
2022-12-22T10:49:22.844Z,60.05
2022-12-22T10:51:53.871Z,60.57
2022-12-22T10:54:30.841Z,60.66
2022-12-22T10:57:19.326Z,59.62
2022-12-22T10:59:50.582Z,59.96
2022-12-22T11:02:30.508Z,60.31
2022-12-22T11:05:04.765Z,60.99
2022-12-22T11:07:35.464Z,61.30
2022-12-22T11:10:04.008Z,61.41
2022-12-22T11:12:44.723Z,61.17
2022-12-22T11:15:24.965Z,62.57
2022-12-22T11:18:02.834Z,62.92
2022-12-22T11:20:48.246Z,62.50
2022-12-22T11:23:21.252Z,62.67
2022-12-22T11:26:07.506Z,62.05
2022-12-22T11:28:55.801Z,62.34
2022-12-22T11:31:40.991Z,62.21
2022-12-22T11:34:21.904Z,63.09
2022-12-22T11:37:08.703Z,63.02
2022-12-22T11:39:43.526Z,62.26
2022-12-22T11:42:36.439Z,60.56
2022-12-22T11:45:30.373Z,59.12
2022-12-22T11:48:08.938Z,59.58
2022-12-22T11:50:59.671Z,58.72
2022-12-22T11:53:51.342Z,58.78
2022-12-22T11:56:23.913Z,58.61
2022-12-22T11:59:11.764Z,59.36
2022-12-22T12:02:01.226Z,59.01
2022-12-22T12:05:00.857Z,59.19
2022-12-22T12:07:32.937Z,60.30
2022-12-22T12:10:14.707Z,62.01
2022-12-22T12:12:52.746Z,59.61
2022-12-22T12:15:30.118Z,58.22
2022-12-22T12:18:27.858Z,56.45
2022-12-22T12:21:08.780Z,55.45
2022-12-22T12:23:53.739Z,56.48
2022-12-22T12:26:26.526Z,56.43
2022-12-22T12:29:05.461Z,57.54
2022-12-22T12:31:39.214Z,58.16
2022-12-22T12:34:13.427Z,57.88
2022-12-22T12:36:46.459Z,54.59
2022-12-22T12:39:19.335Z,53.88
2022-12-22T12:41:55.027Z,53.93
2022-12-22T12:44:27.088Z,55.97
2022-12-22T12:47:23.297Z,53.85
2022-12-22T12:50:02.962Z,53.13
2022-12-22T12:53:13.967Z,53.95
2022-12-22T12:56:04.652Z,50.97
2022-12-22T12:58:54.855Z,50.72
2022-12-22T13:01:57.760Z,49.37
2022-12-22T13:05:14.477Z,49.89
2022-12-22T13:08:12.464Z,49.34
2022-12-22T13:10:43.195Z,50.17
2022-12-22T13:13:34.821Z,51.08
2022-12-22T13:16:32.290Z,50.84
2022-12-22T13:19:03.539Z,51.38
2022-12-22T13:21:53.063Z,51.95
2022-12-22T13:24:27.527Z,53.17
2022-12-22T13:27:01.695Z,54.36
2022-12-22T13:29:41.674Z,55.78
2022-12-22T13:32:23.391Z,56.46
2022-12-22T13:35:30.321Z,57.18
2022-12-22T13:37:54.673Z,58.33
2022-12-22T13:40:26.526Z,58.61
2022-12-22T13:42:57.261Z,58.96
2022-12-22T13:45:35.630Z,58.97
2022-12-22T13:48:10.449Z,59.41
2022-12-22T13:50:42.775Z,59.51
2022-12-22T13:53:22.910Z,59.25
2022-12-22T13:56:01.392Z,59.48
2022-12-22T13:58:33.857Z,59.74
2022-12-22T14:01:05.582Z,60.26
2022-12-22T14:03:58.644Z,60.02
2022-12-22T14:06:28.090Z,60.19
2022-12-22T14:09:10.620Z,60.63
2022-12-22T14:11:38.709Z,61.04
2022-12-22T14:14:08.940Z,61.57
2022-12-22T14:16:44.362Z,62.16
2022-12-22T14:19:14.547Z,62.03
2022-12-22T14:21:43.248Z,62.35
2022-12-22T14:24:15.511Z,62.37
2022-12-22T14:26:43.944Z,62.19
2022-12-22T14:29:18.398Z,61.91
2022-12-22T14:31:55.600Z,62.28
2022-12-22T14:34:29.016Z,62.09
2022-12-22T14:36:58.476Z,62.20
2022-12-22T14:39:30.844Z,61.82
2022-12-22T14:42:01.429Z,61.96
2022-12-22T14:44:31.041Z,62.37
2022-12-22T14:47:16.154Z,62.27
2022-12-22T14:49:51.826Z,62.06
2022-12-22T14:52:26.223Z,62.52
2022-12-22T14:54:56.029Z,63.02
2022-12-22T14:57:32.436Z,62.72
2022-12-22T15:00:07.396Z,62.70
2022-12-22T15:02:39.967Z,62.84
2022-12-22T15:05:16.215Z,62.57
2022-12-22T15:08:05.232Z,62.37
2022-12-22T15:10:40.987Z,62.09
2022-12-22T15:13:18.334Z,62.25
2022-12-22T15:15:46.478Z,61.90
2022-12-22T15:18:16.809Z,62.26
2022-12-22T15:20:44.937Z,62.14
2022-12-22T15:23:16.762Z,61.89
2022-12-22T15:25:45.023Z,62.12
2022-12-22T15:28:13.077Z,62.38
2022-12-22T15:30:42.061Z,62.33
2022-12-22T15:33:14.326Z,62.16
2022-12-22T15:35:44.187Z,62.24
2022-12-22T15:38:15.418Z,62.36
2022-12-22T15:40:43.986Z,62.35
2022-12-22T15:43:36.818Z,62.18
2022-12-22T15:46:00.837Z,62.45
2022-12-22T15:48:33.041Z,62.31
2022-12-22T15:51:05.240Z,62.12
2022-12-22T15:53:34.643Z,62.71
2022-12-22T15:56:02.831Z,62.60
2022-12-22T15:58:35.977Z,63.05
2022-12-22T16:01:04.086Z,62.50
2022-12-22T16:03:32.226Z,62.57
2022-12-22T16:06:00.741Z,62.62
2022-12-22T16:08:32.367Z,62.69
2022-12-22T16:11:00.878Z,62.68
2022-12-22T16:13:29.541Z,62.42
2022-12-22T16:15:58.267Z,62.34
2022-12-22T16:18:26.937Z,62.63
2022-12-22T16:20:55.749Z,62.50
2022-12-22T16:23:27.055Z,62.86
2022-12-22T16:26:02.139Z,62.40
2022-12-22T16:28:30.717Z,62.33
2022-12-22T16:30:58.961Z,62.55
2022-12-22T16:33:27.053Z,62.56
2022-12-22T16:35:55.171Z,62.63
2022-12-22T16:38:23.330Z,62.60
2022-12-22T16:40:53.880Z,62.67
2022-12-22T16:46:17.018Z,62.84
2022-12-22T16:48:47.863Z,62.77
2022-12-22T16:51:19.726Z,62.95
2022-12-22T16:53:47.884Z,62.71
2022-12-22T16:56:19.375Z,62.30
2022-12-22T16:58:49.329Z,62.48
2022-12-22T17:01:26.711Z,62.21
2022-12-22T17:03:55.280Z,62.59
2022-12-22T17:06:23.368Z,62.48
2022-12-22T17:08:51.484Z,62.21
2022-12-22T17:11:23.108Z,62.05
2022-12-22T17:13:55.076Z,61.77
2022-12-22T17:16:24.274Z,62.01
2022-12-22T17:18:52.366Z,62.07
2022-12-22T17:21:21.823Z,62.18
2022-12-22T17:23:52.341Z,62.63
2022-12-22T17:26:23.879Z,62.74
2022-12-22T17:28:53.757Z,62.66
2022-12-22T17:31:23.681Z,62.86
2022-12-22T17:33:52.083Z,62.46
2022-12-22T17:36:33.065Z,62.47
2022-12-22T17:39:02.246Z,62.83
2022-12-22T17:41:30.712Z,62.79
2022-12-22T17:44:00.158Z,62.85
2022-12-22T17:46:29.015Z,63.09
2022-12-22T17:48:57.115Z,63.03
2022-12-22T17:51:28.261Z,62.73
2022-12-22T17:53:58.748Z,62.70
2022-12-22T17:56:28.216Z,63.05
2022-12-22T17:58:56.363Z,63.67
2022-12-22T18:01:28.706Z,63.76
2022-12-22T18:03:57.761Z,63.53
2022-12-22T18:06:29.299Z,63.53
2022-12-22T18:08:58.111Z,63.60
2022-12-22T18:11:26.604Z,63.22
2022-12-22T18:13:57.348Z,63.27
2022-12-22T18:16:27.459Z,63.41
2022-12-22T18:18:55.574Z,63.62
2022-12-22T18:21:25.653Z,63.23
2022-12-22T18:23:54.014Z,63.22
2022-12-22T18:26:24.195Z,63.34
2022-12-22T18:28:52.835Z,63.08
2022-12-22T18:31:21.630Z,63.13
2022-12-22T18:33:51.795Z,63.31
2022-12-22T18:36:21.353Z,63.20
2022-12-22T18:38:50.038Z,64.25
2022-12-22T18:41:22.970Z,63.18
2022-12-22T18:43:51.495Z,63.36
2022-12-22T18:46:20.400Z,63.62
2022-12-22T18:48:50.237Z,63.85
2022-12-22T18:51:21.568Z,63.73
2022-12-22T18:53:50.422Z,63.97
2022-12-22T18:56:18.878Z,63.84
2022-12-22T18:58:47.111Z,63.60
2022-12-22T19:01:19.856Z,63.72
2022-12-22T19:03:50.349Z,63.31
2022-12-22T19:06:21.059Z,62.87
2022-12-22T19:08:49.593Z,63.17
2022-12-22T19:11:19.205Z,63.37
2022-12-22T19:13:48.946Z,63.51
2022-12-22T19:16:19.784Z,62.98
2022-12-22T19:18:47.979Z,62.74
2022-12-22T19:21:19.054Z,63.11
2022-12-22T19:23:47.531Z,63.01
2022-12-22T19:26:22.698Z,62.68
2022-12-22T19:28:53.389Z,62.78
2022-12-22T19:31:24.132Z,62.87
2022-12-22T19:33:53.458Z,62.55
2022-12-22T19:36:26.381Z,62.89
2022-12-22T19:39:02.621Z,63.08
2022-12-22T19:41:41.290Z,62.89
2022-12-22T19:44:18.847Z,62.87
2022-12-22T19:46:47.702Z,63.20
2022-12-22T19:49:17.949Z,62.98
2022-12-22T19:51:47.939Z,63.05
2022-12-22T19:54:16.277Z,62.93
2022-12-22T19:56:47.348Z,63.40
2022-12-22T19:59:26.984Z,62.85
2022-12-22T20:01:58.592Z,63.31
2022-12-22T20:04:26.922Z,63.44
2022-12-22T20:06:56.375Z,63.58
2022-12-22T20:09:24.447Z,63.54
2022-12-22T20:11:52.477Z,63.78
2022-12-22T20:14:20.819Z,63.75
2022-12-22T20:16:48.915Z,63.56
2022-12-22T20:19:17.573Z,63.56
2022-12-22T20:21:45.738Z,63.29
2022-12-22T20:24:21.943Z,63.08
2022-12-22T20:26:54.041Z,63.31
2022-12-22T20:29:23.805Z,63.18
2022-12-22T20:31:52.049Z,63.27
2022-12-22T20:34:20.139Z,63.08
2022-12-22T20:36:48.193Z,62.96
2022-12-22T20:39:20.522Z,62.79
2022-12-22T20:41:53.494Z,62.94
2022-12-22T20:44:23.004Z,62.96
2022-12-22T20:46:51.323Z,62.92
2022-12-22T20:49:19.390Z,62.98
2022-12-22T20:51:47.583Z,62.89
2022-12-22T20:54:17.744Z,63.05
2022-12-22T20:56:46.296Z,62.89
2022-12-22T20:59:16.621Z,63.01
2022-12-22T21:01:44.871Z,62.89
2022-12-22T21:04:14.220Z,62.82
2022-12-22T21:06:46.269Z,62.70
2022-12-22T21:09:16.095Z,62.76
2022-12-22T21:11:45.829Z,62.82
2022-12-22T21:14:14.270Z,62.88
2022-12-22T21:16:43.564Z,62.88
2022-12-22T21:19:17.994Z,62.73
2022-12-22T21:21:46.265Z,62.79
2022-12-22T21:24:14.644Z,62.69
2022-12-22T21:26:47.342Z,62.64
2022-12-22T21:29:19.537Z,62.63
2022-12-22T21:31:47.636Z,62.88
2022-12-22T21:34:15.655Z,62.76
2022-12-22T21:36:45.114Z,62.66
2022-12-22T21:39:22.712Z,62.52
2022-12-22T21:42:01.280Z,62.66
2022-12-22T21:44:30.050Z,62.70
2022-12-22T21:46:58.436Z,62.68
2022-12-22T21:49:29.560Z,62.76
2022-12-22T21:51:57.760Z,62.73
2022-12-22T21:54:27.098Z,62.66
2022-12-22T21:56:56.579Z,62.61
2022-12-22T21:59:24.829Z,62.53
2022-12-22T22:01:53.499Z,62.44
2022-12-22T22:04:22.247Z,62.40
2022-12-22T22:06:50.352Z,62.41
2022-12-22T22:09:18.366Z,62.33
2022-12-22T22:12:03.601Z,62.22
2022-12-22T22:14:33.128Z,62.15
2022-12-22T22:17:01.188Z,62.12
2022-12-22T22:19:29.241Z,62.05
2022-12-22T22:21:57.283Z,62.09
2022-12-22T22:24:25.780Z,62.10
2022-12-22T22:26:55.958Z,62.05
2022-12-22T22:29:24.132Z,61.93
2022-12-22T22:31:53.580Z,61.83
2022-12-22T22:34:21.595Z,61.88
2022-12-22T22:36:49.669Z,61.89
2022-12-22T22:39:17.821Z,61.92
2022-12-22T22:41:45.872Z,61.93
2022-12-22T22:44:14.419Z,61.90
2022-12-22T22:46:42.507Z,61.89
2022-12-22T22:49:11.965Z,61.83
2022-12-22T22:51:40.026Z,61.98
2022-12-22T22:54:08.070Z,62.02
2022-12-22T22:56:38.742Z,62.01
2022-12-22T22:59:07.043Z,61.96
2022-12-22T23:01:35.221Z,61.96
2022-12-22T23:04:03.378Z,61.97
2022-12-22T23:06:32.898Z,61.90
2022-12-22T23:09:01.610Z,61.93
2022-12-22T23:11:29.685Z,61.99
2022-12-22T23:13:57.778Z,61.99
2022-12-22T23:16:25.934Z,61.98
2022-12-22T23:18:54.772Z,61.89
2022-12-22T23:21:24.625Z,61.77
2022-12-22T23:23:57.543Z,61.47
2022-12-22T23:26:26.359Z,61.67
2022-12-22T23:28:59.124Z,61.65
2022-12-22T23:31:31.294Z,61.78
2022-12-22T23:33:59.426Z,61.79
2022-12-22T23:36:27.568Z,61.78
2022-12-22T23:38:57.220Z,61.74
2022-12-22T23:41:25.494Z,61.76
2022-12-22T23:43:54.617Z,61.73
2022-12-22T23:46:23.297Z,61.85
2022-12-22T23:48:53.077Z,61.80
2022-12-22T23:51:22.749Z,61.75
2022-12-22T23:53:50.761Z,61.73
2022-12-22T23:56:20.499Z,61.75
2022-12-22T23:58:54.481Z,61.88
